createdAt,value
2019-02-07T00:00:26.723Z,101479.45
2019-02-07T00:01:34.019Z,101479.78
2019-02-07T00:02:40.059Z,101488.32
2019-02-07T00:03:47.038Z,101484.39
2019-02-07T00:04:53.060Z,101485.09
2019-02-07T00:06:00.129Z,101485.50
2019-02-07T00:07:06.590Z,101496.25
2019-02-07T00:08:13.159Z,101492.37
2019-02-07T00:09:20.197Z,101500.30
2019-02-07T00:10:26.775Z,101486.19
2019-02-07T00:11:33.799Z,101483.01
2019-02-07T00:12:40.323Z,101483.78
2019-02-07T00:13:46.230Z,101479.98
2019-02-07T00:14:52.015Z,101479.04
2019-02-07T00:15:58.407Z,101478.55
2019-02-07T00:17:04.200Z,101473.73
2019-02-07T00:18:11.237Z,101469.31
2019-02-07T00:19:18.378Z,101473.03
2019-02-07T00:20:25.618Z,101470.38
2019-02-07T00:21:31.784Z,101465.35
2019-02-07T00:22:39.317Z,101466.73
2019-02-07T00:23:45.206Z,101463.15
2019-02-07T00:24:51.567Z,101465.27
2019-02-07T00:25:58.086Z,101456.07
2019-02-07T00:27:04.283Z,101463.34
2019-02-07T00:28:10.714Z,101465.48
2019-02-07T00:29:17.624Z,101464.61
2019-02-07T00:30:24.423Z,101462.05
2019-02-07T00:31:31.274Z,101474.42
2019-02-07T00:32:39.015Z,101471.27
2019-02-07T00:33:44.982Z,101466.95
2019-02-07T00:34:52.174Z,101475.07
2019-02-07T00:35:58.655Z,101465.55
2019-02-07T00:37:04.709Z,101459.30
2019-02-07T00:38:14.985Z,101462.41
2019-02-07T00:39:21.614Z,101451.05
2019-02-07T00:40:28.187Z,101452.97
2019-02-07T00:41:34.396Z,101443.00
2019-02-07T00:42:42.172Z,101440.80
2019-02-07T00:43:48.465Z,101439.81
2019-02-07T00:44:55.267Z,101447.53
2019-02-07T00:46:03.215Z,101450.07
2019-02-07T00:47:09.754Z,101446.14
2019-02-07T00:48:17.718Z,101442.64
2019-02-07T00:49:24.366Z,101435.23
2019-02-07T00:50:31.335Z,101445.20
2019-02-07T00:51:38.304Z,101454.20
2019-02-07T00:52:44.907Z,101433.23
2019-02-07T00:53:51.855Z,101434.46
2019-02-07T00:54:57.688Z,101435.72
2019-02-07T00:56:03.939Z,101429.11
2019-02-07T00:57:10.498Z,101423.80
2019-02-07T00:58:16.358Z,101444.99
2019-02-07T00:59:23.029Z,101437.52
2019-02-07T01:00:31.830Z,101437.92
2019-02-07T01:01:37.697Z,101433.64
2019-02-07T01:02:43.919Z,101428.82
2019-02-07T01:03:50.087Z,101412.52
2019-02-07T01:04:56.025Z,101414.73
2019-02-07T01:06:02.917Z,101417.70
2019-02-07T01:07:10.178Z,101407.70
2019-02-07T01:08:17.927Z,101413.83
2019-02-07T01:09:24.559Z,101414.64
2019-02-07T01:10:32.715Z,101411.01
2019-02-07T01:11:38.258Z,101413.70
2019-02-07T01:12:45.178Z,101422.48
2019-02-07T01:13:52.154Z,101421.95
2019-02-07T01:15:02.159Z,101438.00
2019-02-07T01:16:06.875Z,101429.80
2019-02-07T01:17:13.875Z,101422.84
2019-02-07T01:18:20.070Z,101427.59
2019-02-07T01:19:27.933Z,101418.03
2019-02-07T01:20:35.115Z,101415.78
2019-02-07T01:21:40.895Z,101414.03
2019-02-07T01:22:46.783Z,101414.80
2019-02-07T01:23:55.341Z,101409.58
2019-02-07T01:25:01.691Z,101410.88
2019-02-07T01:26:08.449Z,101391.61
2019-02-07T01:27:15.538Z,101374.09
2019-02-07T01:28:23.066Z,101381.16
2019-02-07T01:29:29.389Z,101370.17
2019-02-07T01:30:37.168Z,101357.27
2019-02-07T01:31:43.811Z,101358.08
2019-02-07T01:32:50.611Z,101361.80
2019-02-07T01:33:56.961Z,101355.59
2019-02-07T01:35:02.682Z,101344.40
2019-02-07T01:36:10.029Z,101346.23
2019-02-07T01:37:15.806Z,101341.42
2019-02-07T01:38:22.158Z,101331.87
2019-02-07T01:39:29.159Z,101307.81
2019-02-07T01:40:35.070Z,101313.91
2019-02-07T01:41:41.929Z,101321.70
2019-02-07T01:42:48.158Z,101331.99
2019-02-07T01:43:54.531Z,101344.69
2019-02-07T01:45:01.173Z,101353.13
2019-02-07T01:46:08.868Z,101355.87
2019-02-07T01:47:14.644Z,101360.28
2019-02-07T01:48:21.983Z,101371.63
2019-02-07T01:49:27.913Z,101382.97
2019-02-07T01:50:34.120Z,101389.09
2019-02-07T01:51:40.073Z,101394.78
2019-02-07T01:52:46.930Z,101401.39
2019-02-07T01:53:52.850Z,101400.98
2019-02-07T01:55:00.630Z,101402.61
2019-02-07T01:56:08.542Z,101407.56
2019-02-07T01:57:14.374Z,101402.91
2019-02-07T01:58:21.564Z,101399.06
2019-02-07T01:59:29.435Z,101403.94
2019-02-07T02:00:35.785Z,101396.59
2019-02-07T02:01:42.103Z,101365.22
2019-02-07T02:02:48.389Z,101348.03
2019-02-07T02:03:54.662Z,101346.36
2019-02-07T02:05:01.383Z,101362.13
2019-02-07T02:06:07.571Z,101355.19
2019-02-07T02:07:14.052Z,101366.73
2019-02-07T02:08:20.502Z,101374.58
2019-02-07T02:09:26.538Z,101369.76
2019-02-07T02:10:32.983Z,101379.03
2019-02-07T02:11:40.095Z,101382.83
2019-02-07T02:12:46.335Z,101377.68
2019-02-07T02:13:53.380Z,101371.60
2019-02-07T02:14:59.809Z,101360.41
2019-02-07T02:16:06.079Z,101369.88
2019-02-07T02:17:11.973Z,101366.78
2019-02-07T02:18:19.576Z,101356.57
2019-02-07T02:19:25.999Z,101358.20
2019-02-07T02:20:34.089Z,101357.30
2019-02-07T02:21:41.280Z,101347.22
2019-02-07T02:22:48.232Z,101349.34
2019-02-07T02:23:54.266Z,101345.34
2019-02-07T02:25:00.402Z,101341.02
2019-02-07T02:26:06.439Z,101343.62
2019-02-07T02:27:13.398Z,101345.75
2019-02-07T02:28:20.982Z,101347.42
2019-02-07T02:29:27.681Z,101337.87
2019-02-07T02:30:36.933Z,101346.16
2019-02-07T02:31:42.964Z,101337.87
2019-02-07T02:32:49.790Z,101341.83
2019-02-07T02:33:56.848Z,101333.05
2019-02-07T02:35:02.551Z,101331.74
2019-02-07T02:36:08.941Z,101322.60
2019-02-07T02:37:17.170Z,101322.11
2019-02-07T02:38:22.965Z,101313.98
2019-02-07T02:39:29.571Z,101312.56
2019-02-07T02:40:36.757Z,101318.20
2019-02-07T02:41:42.921Z,101315.45
2019-02-07T02:42:49.821Z,101311.62
2019-02-07T02:43:57.330Z,101311.45
2019-02-07T02:45:03.000Z,101303.58
2019-02-07T02:46:09.931Z,101312.15
2019-02-07T02:47:16.318Z,101312.15
2019-02-07T02:48:23.529Z,101309.53
2019-02-07T02:49:30.091Z,101305.57
2019-02-07T02:50:36.191Z,101307.78
2019-02-07T02:51:42.072Z,101306.39
2019-02-07T02:52:49.321Z,101314.76
2019-02-07T02:53:57.330Z,101308.19
2019-02-07T02:55:05.292Z,101308.64
2019-02-07T02:56:11.941Z,101306.31
2019-02-07T02:57:18.167Z,101302.88
2019-02-07T02:58:24.590Z,101301.91
2019-02-07T02:59:31.251Z,101295.38
2019-02-07T03:00:46.021Z,101292.77
2019-02-07T03:02:08.956Z,101291.61
2019-02-07T03:03:23.677Z,101286.72
2019-02-07T03:04:31.215Z,101277.66
2019-02-07T03:05:42.884Z,101272.56
2019-02-07T03:06:54.189Z,101276.15
2019-02-07T03:08:10.638Z,101258.61
2019-02-07T03:09:25.082Z,101256.97
2019-02-07T03:10:41.893Z,101262.19
2019-02-07T03:11:56.637Z,101260.93
2019-02-07T03:13:07.720Z,101264.03
2019-02-07T03:14:17.978Z,101269.75
2019-02-07T03:15:49.330Z,101266.23
2019-02-07T03:16:52.778Z,101269.66
2019-02-07T03:18:03.444Z,101271.34
2019-02-07T03:19:09.411Z,101269.13
2019-02-07T03:20:20.705Z,101270.72
2019-02-07T03:21:35.956Z,101270.72
2019-02-07T03:22:44.133Z,101269.75
2019-02-07T03:23:52.041Z,101272.77
2019-02-07T03:24:59.882Z,101270.56
2019-02-07T03:26:23.240Z,101268.44
2019-02-07T03:27:29.178Z,101263.78
2019-02-07T03:28:42.876Z,101265.91
2019-02-07T03:29:50.378Z,101267.63
2019-02-07T03:30:57.551Z,101268.03
2019-02-07T03:32:21.856Z,101256.97
2019-02-07T03:33:45.753Z,101252.98
2019-02-07T03:34:53.650Z,101249.83
2019-02-07T03:36:11.042Z,101252.93
2019-02-07T03:37:21.357Z,101242.48
2019-02-07T03:38:47.113Z,101238.57
2019-02-07T03:40:01.208Z,101240.36
2019-02-07T03:41:28.055Z,101236.77
2019-02-07T03:42:45.486Z,101241.38
2019-02-07T03:44:01.860Z,101241.26
2019-02-07T03:45:25.314Z,101242.48
2019-02-07T03:46:44.999Z,101240.85
2019-02-07T03:48:10.689Z,101237.80
2019-02-07T03:49:17.964Z,101239.55
2019-02-07T03:50:25.249Z,101234.78
2019-02-07T03:51:34.570Z,101236.57
2019-02-07T03:52:44.621Z,101235.34
2019-02-07T03:53:58.247Z,101232.37
2019-02-07T03:55:20.973Z,101234.49
2019-02-07T03:56:43.637Z,101229.27
2019-02-07T03:58:07.862Z,101236.24
2019-02-07T03:59:19.522Z,101232.86
2019-02-07T04:00:30.493Z,101233.22
2019-02-07T04:01:45.694Z,101231.84
2019-02-07T04:02:53.080Z,101234.86
2019-02-07T04:04:06.589Z,101225.02
2019-02-07T04:05:21.459Z,101229.09
2019-02-07T04:06:29.146Z,101227.18
2019-02-07T04:07:46.339Z,101221.96
2019-02-07T04:08:53.632Z,101220.70
2019-02-07T04:10:17.170Z,101223.67
2019-02-07T04:11:33.478Z,101225.52
2019-02-07T04:12:54.137Z,101220.58
2019-02-07T04:14:02.039Z,101226.77
2019-02-07T04:15:13.944Z,101221.75
2019-02-07T04:16:21.334Z,101218.17
2019-02-07T04:17:45.063Z,101216.81
2019-02-07T04:18:58.714Z,101222.45
2019-02-07T04:20:14.580Z,101216.66
2019-02-07T04:21:32.321Z,101221.34
2019-02-07T04:22:43.195Z,101211.64
2019-02-07T04:23:49.757Z,101207.59
2019-02-07T04:25:10.619Z,101206.49
2019-02-07T04:26:31.629Z,101208.89
2019-02-07T04:27:45.441Z,101204.84
2019-02-07T04:29:10.550Z,101208.14
2019-02-07T04:30:16.898Z,101208.95
2019-02-07T04:31:24.106Z,101210.54
2019-02-07T04:32:34.549Z,101211.77
2019-02-07T04:33:58.023Z,101210.73
2019-02-07T04:35:06.299Z,101211.91
2019-02-07T04:36:17.729Z,101211.02
2019-02-07T04:37:26.233Z,101211.38
2019-02-07T04:38:31.594Z,101210.06
2019-02-07T04:39:39.537Z,101219.52
2019-02-07T04:40:47.717Z,101214.09
2019-02-07T04:42:11.064Z,101215.31
2019-02-07T04:43:17.751Z,101225.69
2019-02-07T04:44:25.426Z,101217.30
2019-02-07T04:45:36.336Z,101210.31
2019-02-07T04:46:54.272Z,101212.44
2019-02-07T04:48:04.640Z,101214.02
2019-02-07T04:49:18.583Z,101214.34
2019-02-07T04:50:33.423Z,101210.11
2019-02-07T04:51:45.521Z,101206.87
2019-02-07T04:53:12.440Z,101203.61
2019-02-07T04:54:32.532Z,101201.36
2019-02-07T04:55:58.151Z,101199.56
2019-02-07T04:57:18.710Z,101211.70
2019-02-07T04:58:43.596Z,101203.34
2019-02-07T05:00:03.060Z,101206.22
2019-02-07T05:01:26.511Z,101198.58
2019-02-07T05:02:50.802Z,101206.41
2019-02-07T05:04:14.552Z,101206.80
2019-02-07T05:05:38.119Z,101202.81
2019-02-07T05:06:45.383Z,101198.91
2019-02-07T05:07:52.846Z,101200.88
2019-02-07T05:09:16.733Z,101203.44
2019-02-07T05:10:31.596Z,101201.28
2019-02-07T05:11:45.878Z,101194.36
2019-02-07T05:13:03.044Z,101199.66
2019-02-07T05:14:27.239Z,101187.04
2019-02-07T05:15:38.163Z,101185.92
2019-02-07T05:16:48.227Z,101185.92
2019-02-07T05:17:56.278Z,101185.87
2019-02-07T05:19:19.983Z,101179.76
2019-02-07T05:20:31.063Z,101178.86
2019-02-07T05:21:38.594Z,101179.36
2019-02-07T05:22:47.119Z,101179.59
2019-02-07T05:24:07.417Z,101185.97
2019-02-07T05:25:31.786Z,101187.19
2019-02-07T05:26:43.580Z,101183.95
2019-02-07T05:28:08.668Z,101182.65
2019-02-07T05:29:17.089Z,101190.23
2019-02-07T05:30:27.387Z,101190.64
2019-02-07T05:31:34.922Z,101182.87
2019-02-07T05:32:44.608Z,101181.97
2019-02-07T05:33:58.673Z,101177.66
2019-02-07T05:35:25.700Z,101182.41
2019-02-07T05:36:42.509Z,101175.91
2019-02-07T05:38:07.501Z,101177.61
2019-02-07T05:39:18.330Z,101181.30
2019-02-07T05:40:26.608Z,101179.91
2019-02-07T05:41:51.147Z,101180.26
2019-02-07T05:43:13.790Z,101180.98
2019-02-07T05:44:24.753Z,101173.12
2019-02-07T05:45:33.241Z,101173.12
2019-02-07T05:46:57.131Z,101174.88
2019-02-07T05:48:22.450Z,101170.97
2019-02-07T05:49:30.639Z,101176.94
2019-02-07T05:50:38.182Z,101174.66
2019-02-07T05:51:55.710Z,101172.05
2019-02-07T05:53:01.370Z,101172.54
2019-02-07T05:54:12.242Z,101176.45
2019-02-07T05:55:23.116Z,101172.54
2019-02-07T05:56:33.842Z,101176.45
2019-02-07T05:57:51.250Z,101177.75
2019-02-07T05:59:07.444Z,101171.09
2019-02-07T06:00:34.782Z,101181.66
2019-02-07T06:01:54.947Z,101182.47
2019-02-07T06:03:03.411Z,101181.38
2019-02-07T06:04:27.640Z,101182.73
2019-02-07T06:05:35.233Z,101183.14
2019-02-07T06:06:47.386Z,101186.50
2019-02-07T06:08:10.559Z,101180.88
2019-02-07T06:09:18.279Z,101180.94
2019-02-07T06:10:42.213Z,101177.47
2019-02-07T06:12:09.165Z,101176.71
2019-02-07T06:13:34.055Z,101183.31
2019-02-07T06:14:42.833Z,101187.53
2019-02-07T06:15:57.121Z,101184.84
2019-02-07T06:17:17.955Z,101188.20
2019-02-07T06:18:45.969Z,101189.69
2019-02-07T06:20:09.712Z,101184.66
2019-02-07T06:21:26.515Z,101181.33
2019-02-07T06:22:43.987Z,101192.78
2019-02-07T06:23:52.350Z,101182.23
2019-02-07T06:25:08.541Z,101187.89
2019-02-07T06:26:19.770Z,101185.69
2019-02-07T06:27:27.588Z,101187.00
2019-02-07T06:28:35.372Z,101186.05
2019-02-07T06:29:46.140Z,101183.09
2019-02-07T06:30:54.155Z,101180.66
2019-02-07T06:32:01.806Z,101172.17
2019-02-07T06:33:25.688Z,101173.13
2019-02-07T06:34:37.257Z,101175.99
2019-02-07T06:35:48.116Z,101175.09
2019-02-07T06:36:56.390Z,101179.09
2019-02-07T06:38:04.010Z,101183.09
2019-02-07T06:39:31.018Z,101180.39
2019-02-07T06:40:51.935Z,101175.19
2019-02-07T06:42:09.580Z,101176.58
2019-02-07T06:43:23.593Z,101180.94
2019-02-07T06:44:38.354Z,101178.28
2019-02-07T06:45:49.094Z,101179.58
2019-02-07T06:46:57.917Z,101181.38
2019-02-07T06:48:08.275Z,101187.80
2019-02-07T06:49:22.505Z,101178.33
2019-02-07T06:50:35.827Z,101173.70
2019-02-07T06:51:50.786Z,101178.16
2019-02-07T06:52:58.991Z,101172.31
2019-02-07T06:54:26.724Z,101168.00
2019-02-07T06:55:39.877Z,101169.53
2019-02-07T06:57:17.029Z,101165.76
2019-02-07T06:58:26.657Z,101158.44
2019-02-07T06:59:36.878Z,101158.84
2019-02-07T07:01:01.757Z,101158.44
2019-02-07T07:02:23.953Z,101154.12
2019-02-07T07:03:39.653Z,101162.08
2019-02-07T07:04:52.287Z,101162.84
2019-02-07T07:06:11.756Z,101167.06
2019-02-07T07:07:36.474Z,101164.54
2019-02-07T07:08:56.346Z,101162.48
2019-02-07T07:10:28.934Z,101160.77
2019-02-07T07:11:41.006Z,101158.52
2019-02-07T07:12:51.654Z,101157.67
2019-02-07T07:13:58.938Z,101164.27
2019-02-07T07:15:31.093Z,101161.12
2019-02-07T07:16:43.195Z,101158.66
2019-02-07T07:17:52.915Z,101155.23
2019-02-07T07:19:03.901Z,101156.86
2019-02-07T07:20:18.214Z,101155.83
2019-02-07T07:21:34.744Z,101152.73
2019-02-07T07:22:45.993Z,101158.44
2019-02-07T07:23:58.415Z,101149.41
2019-02-07T07:25:28.302Z,101152.14
2019-02-07T07:26:34.954Z,101145.63
2019-02-07T07:28:00.855Z,101143.02
2019-02-07T07:29:09.474Z,101145.31
2019-02-07T07:30:34.036Z,101145.04
2019-02-07T07:32:01.494Z,101146.13
2019-02-07T07:33:25.548Z,101145.77
2019-02-07T07:34:35.424Z,101141.31
2019-02-07T07:35:44.446Z,101144.95
2019-02-07T07:36:52.315Z,101139.74
2019-02-07T07:38:00.309Z,101137.27
2019-02-07T07:39:25.796Z,101141.67
2019-02-07T07:40:51.530Z,101137.27
2019-02-07T07:42:12.435Z,101133.53
2019-02-07T07:43:20.334Z,101133.98
2019-02-07T07:44:43.874Z,101127.97
2019-02-07T07:46:15.094Z,101128.78
2019-02-07T07:48:01.230Z,101122.84
2019-02-07T07:49:19.838Z,101125.94
2019-02-07T07:50:37.275Z,101128.09
2019-02-07T07:51:43.714Z,101130.92
2019-02-07T07:52:57.556Z,101131.55
2019-02-07T07:54:12.474Z,101133.42
2019-02-07T07:55:25.651Z,101126.22
2019-02-07T07:56:52.237Z,101136.38
2019-02-07T07:58:03.394Z,101127.52
2019-02-07T07:59:15.401Z,101129.94
2019-02-07T08:00:34.056Z,101126.44
2019-02-07T08:01:39.984Z,101133.49
2019-02-07T08:02:54.834Z,101139.11
2019-02-07T08:04:07.658Z,101138.37
2019-02-07T08:05:22.591Z,101135.37
2019-02-07T08:06:36.534Z,101131.50
2019-02-07T08:08:00.931Z,101135.58
2019-02-07T08:09:15.774Z,101136.47
2019-02-07T08:10:27.553Z,101140.59
2019-02-07T08:11:37.754Z,101143.34
2019-02-07T08:12:52.969Z,101140.86
2019-02-07T08:14:08.016Z,101135.72
2019-02-07T08:15:29.134Z,101137.92
2019-02-07T08:16:38.343Z,101138.45
2019-02-07T08:17:52.689Z,101139.84
2019-02-07T08:19:06.742Z,101133.45
2019-02-07T08:20:30.593Z,101134.76
2019-02-07T08:21:56.903Z,101131.33
2019-02-07T08:23:04.147Z,101130.16
2019-02-07T08:24:27.354Z,101128.08
2019-02-07T08:25:42.534Z,101127.27
2019-02-07T08:26:50.475Z,101127.42
2019-02-07T08:27:59.717Z,101126.17
2019-02-07T08:29:21.531Z,101118.91
2019-02-07T08:30:36.420Z,101107.83
2019-02-07T08:31:46.955Z,101112.77
2019-02-07T08:32:59.996Z,101105.02
2019-02-07T08:34:26.454Z,101115.24
2019-02-07T08:35:33.925Z,101102.69
2019-02-07T08:36:50.019Z,101102.88
2019-02-07T08:37:58.278Z,101103.12
2019-02-07T08:39:11.135Z,101100.19
2019-02-07T08:40:28.860Z,101102.99
2019-02-07T08:41:52.855Z,101100.58
2019-02-07T08:42:58.475Z,101108.13
2019-02-07T08:44:03.962Z,101108.61
2019-02-07T08:45:13.373Z,101104.69
2019-02-07T08:46:29.544Z,101106.89
2019-02-07T08:47:58.571Z,101104.13
2019-02-07T08:49:07.449Z,101104.61
2019-02-07T08:50:25.674Z,101106.89
2019-02-07T08:51:36.141Z,101098.69
2019-02-07T08:52:54.016Z,101099.66
2019-02-07T08:54:00.802Z,101100.53
2019-02-07T08:55:08.502Z,101104.64
2019-02-07T08:56:32.556Z,101093.78
2019-02-07T08:57:40.699Z,101098.05
2019-02-07T08:58:46.514Z,101103.02
2019-02-07T09:00:10.174Z,101104.51
2019-02-07T09:01:38.055Z,101098.55
2019-02-07T09:03:03.333Z,101088.63
2019-02-07T09:04:31.847Z,101088.70
2019-02-07T09:05:53.450Z,101079.26
2019-02-07T09:07:17.553Z,101088.52
2019-02-07T09:08:28.738Z,101082.39
2019-02-07T09:09:41.434Z,101075.41
2019-02-07T09:11:03.245Z,101076.94
2019-02-07T09:12:16.204Z,101069.59
2019-02-07T09:13:39.754Z,101070.19
2019-02-07T09:14:53.168Z,101055.48
2019-02-07T09:16:15.473Z,101062.53
2019-02-07T09:17:20.916Z,101066.15
2019-02-07T09:18:38.330Z,101062.34
2019-02-07T09:19:51.896Z,101056.77
2019-02-07T09:21:14.284Z,101067.82
2019-02-07T09:22:23.810Z,101067.48
2019-02-07T09:23:35.926Z,101061.88
2019-02-07T09:24:59.694Z,101060.27
2019-02-07T09:26:16.247Z,101062.47
2019-02-07T09:27:24.741Z,101067.16
2019-02-07T09:28:40.734Z,101069.05
2019-02-07T09:29:51.415Z,101060.87
2019-02-07T09:31:04.767Z,101057.84
2019-02-07T09:32:24.493Z,101056.98
2019-02-07T09:33:44.895Z,101054.09
2019-02-07T09:34:58.015Z,101052.52
2019-02-07T09:36:24.155Z,101048.66
2019-02-07T09:37:30.738Z,101047.43
2019-02-07T09:38:41.034Z,101052.77
2019-02-07T09:40:04.599Z,101050.32
2019-02-07T09:41:21.946Z,101044.70
2019-02-07T09:42:42.712Z,101044.44
2019-02-07T09:43:53.874Z,101041.58
2019-02-07T09:45:05.162Z,101043.33
2019-02-07T09:46:25.914Z,101041.19
2019-02-07T09:47:35.728Z,101037.37
2019-02-07T09:48:48.694Z,101036.23
2019-02-07T09:50:08.234Z,101045.52
2019-02-07T09:51:23.416Z,101038.25
2019-02-07T09:52:36.835Z,101041.48
2019-02-07T09:54:02.436Z,101037.37
2019-02-07T09:55:13.307Z,101037.13
2019-02-07T09:56:22.114Z,101029.47
2019-02-07T09:57:30.918Z,101022.66
2019-02-07T09:58:43.489Z,101025.95
2019-02-07T10:00:06.695Z,101019.15
2019-02-07T10:01:20.187Z,101007.20
2019-02-07T10:02:38.107Z,101012.72
2019-02-07T10:03:52.535Z,101005.02
2019-02-07T10:05:09.364Z,101002.72
2019-02-07T10:06:17.202Z,100992.90
2019-02-07T10:07:42.852Z,100997.61
2019-02-07T10:08:53.414Z,100993.41
2019-02-07T10:10:13.914Z,100997.85
2019-02-07T10:11:36.254Z,100995.23
2019-02-07T10:12:57.188Z,100987.31
2019-02-07T10:14:13.814Z,100990.34
2019-02-07T10:15:39.238Z,100984.49
2019-02-07T10:17:01.534Z,100982.95
2019-02-07T10:18:32.787Z,100979.41
2019-02-07T10:19:36.268Z,100970.50
2019-02-07T10:20:47.612Z,100967.70
2019-02-07T10:22:10.305Z,100966.22
2019-02-07T10:23:23.610Z,100959.79
2019-02-07T10:24:47.694Z,100962.19
2019-02-07T10:26:11.657Z,100965.03
2019-02-07T10:27:22.194Z,100965.98
2019-02-07T10:28:45.755Z,100965.69
2019-02-07T10:29:54.040Z,100962.23
2019-02-07T10:31:17.703Z,100962.00
2019-02-07T10:32:27.749Z,100958.17
2019-02-07T10:33:33.307Z,100956.97
2019-02-07T10:34:44.445Z,100952.78
2019-02-07T10:36:01.074Z,100953.41
2019-02-07T10:37:09.894Z,100949.58
2019-02-07T10:38:17.888Z,100945.28
2019-02-07T10:39:35.902Z,100950.52
2019-02-07T10:40:52.673Z,100938.17
2019-02-07T10:42:16.974Z,100934.59
2019-02-07T10:43:40.094Z,100929.70
2019-02-07T10:44:49.014Z,100933.01
2019-02-07T10:46:08.293Z,100928.06
2019-02-07T10:47:33.494Z,100928.58
2019-02-07T10:48:44.652Z,100931.63
2019-02-07T10:49:59.445Z,100928.11
2019-02-07T10:51:06.562Z,100926.27
2019-02-07T10:52:20.105Z,100925.73
2019-02-07T10:53:33.730Z,100934.88
2019-02-07T10:54:53.675Z,100924.80
2019-02-07T10:56:17.862Z,100923.11
2019-02-07T10:57:31.633Z,100919.23
2019-02-07T10:58:37.054Z,100917.44
2019-02-07T10:59:46.101Z,100913.38
2019-02-07T11:01:00.515Z,100913.22
2019-02-07T11:02:15.375Z,100905.11
2019-02-07T11:03:31.333Z,100909.52
2019-02-07T11:04:59.884Z,100903.38
2019-02-07T11:06:27.259Z,100906.06
2019-02-07T11:07:36.234Z,100905.70
2019-02-07T11:08:52.290Z,100906.60
2019-02-07T11:10:09.273Z,100895.77
2019-02-07T11:11:18.814Z,100897.56
2019-02-07T11:12:36.415Z,100893.69
2019-02-07T11:13:47.791Z,100891.53
2019-02-07T11:15:01.415Z,100886.28
2019-02-07T11:16:18.715Z,100886.81
2019-02-07T11:17:31.427Z,100886.28
2019-02-07T11:18:55.723Z,100886.33
2019-02-07T11:20:08.237Z,100881.13
2019-02-07T11:21:16.794Z,100882.91
2019-02-07T11:22:24.242Z,100880.34
2019-02-07T11:23:34.327Z,100876.04
2019-02-07T11:24:44.154Z,100870.83
2019-02-07T11:26:03.634Z,100876.89
2019-02-07T11:27:11.673Z,100867.69
2019-02-07T11:28:19.465Z,100869.47
2019-02-07T11:29:28.634Z,100872.52
2019-02-07T11:30:39.902Z,100870.31
2019-02-07T11:32:03.575Z,100864.20
2019-02-07T11:33:17.363Z,100869.88
2019-02-07T11:34:30.842Z,100868.05
2019-02-07T11:35:57.324Z,100861.89
2019-02-07T11:37:11.467Z,100863.16
2019-02-07T11:38:20.173Z,100849.55
2019-02-07T11:39:29.781Z,100854.33
2019-02-07T11:40:41.290Z,100849.13
2019-02-07T11:41:55.434Z,100847.91
2019-02-07T11:43:06.717Z,100849.30
2019-02-07T11:44:15.206Z,100849.75
2019-02-07T11:45:22.694Z,100843.14
2019-02-07T11:46:48.778Z,100847.98
2019-02-07T11:47:59.215Z,100839.24
2019-02-07T11:49:19.014Z,100835.68
2019-02-07T11:50:32.854Z,100837.41
2019-02-07T11:51:43.814Z,100828.74
2019-02-07T11:53:09.547Z,100830.89
2019-02-07T11:54:24.536Z,100825.64
2019-02-07T11:55:32.334Z,100829.68
2019-02-07T11:56:55.963Z,100827.58
2019-02-07T11:58:10.315Z,100827.59
2019-02-07T11:59:35.914Z,100822.00
2019-02-07T12:01:02.934Z,100826.05
2019-02-07T12:02:19.927Z,100819.11
2019-02-07T12:03:33.873Z,100815.63
2019-02-07T12:04:42.559Z,100810.42
2019-02-07T12:05:51.114Z,100810.89
2019-02-07T12:07:01.227Z,100808.31
2019-02-07T12:08:26.237Z,100806.58
2019-02-07T12:09:34.754Z,100801.31
2019-02-07T12:10:49.174Z,100796.58
2019-02-07T12:12:05.862Z,100792.22
2019-02-07T12:13:17.274Z,100786.02
2019-02-07T12:14:36.415Z,100782.06
2019-02-07T12:15:46.673Z,100790.89
2019-02-07T12:16:57.334Z,100782.73
2019-02-07T12:18:21.277Z,100774.42
2019-02-07T12:19:34.574Z,100775.82
2019-02-07T12:20:55.293Z,100771.88
2019-02-07T12:22:18.956Z,100770.69
2019-02-07T12:23:30.442Z,100763.31
2019-02-07T12:24:47.515Z,100768.61
2019-02-07T12:25:56.034Z,100758.98
2019-02-07T12:27:14.277Z,100761.75
2019-02-07T12:28:31.995Z,100758.30
2019-02-07T12:29:46.767Z,100756.19
2019-02-07T12:31:11.194Z,100756.61
2019-02-07T12:32:19.666Z,100757.45
2019-02-07T12:33:43.913Z,100752.11
2019-02-07T12:34:51.874Z,100752.11
2019-02-07T12:36:00.713Z,100752.20
2019-02-07T12:37:17.746Z,100755.34
2019-02-07T12:38:40.494Z,100746.59
2019-02-07T12:40:04.210Z,100746.64
2019-02-07T12:41:15.887Z,100742.30
2019-02-07T12:42:28.894Z,100745.56
2019-02-07T12:43:39.084Z,100739.95
2019-02-07T12:45:01.268Z,100735.11
2019-02-07T12:46:09.832Z,100728.89
2019-02-07T12:47:19.996Z,100732.29
2019-02-07T12:48:36.417Z,100727.49
2019-02-07T12:50:00.031Z,100733.64
2019-02-07T12:51:20.675Z,100724.43
2019-02-07T12:52:44.235Z,100724.43
2019-02-07T12:54:02.540Z,100727.45
2019-02-07T12:55:11.995Z,100719.44
2019-02-07T12:56:22.855Z,100720.09
2019-02-07T12:57:48.775Z,100720.42
2019-02-07T12:58:57.376Z,100721.74
2019-02-07T13:00:24.053Z,100720.00
2019-02-07T13:01:48.715Z,100720.34
2019-02-07T13:03:01.676Z,100715.88
2019-02-07T13:04:08.649Z,100708.04
2019-02-07T13:05:35.615Z,100714.14
2019-02-07T13:06:57.110Z,100707.45
2019-02-07T13:08:03.876Z,100701.68
2019-02-07T13:09:10.736Z,100704.65
2019-02-07T13:10:27.417Z,100699.31
2019-02-07T13:11:37.723Z,100700.63
2019-02-07T13:13:00.851Z,100702.32
2019-02-07T13:14:08.306Z,100706.59
2019-02-07T13:15:16.665Z,100698.57
2019-02-07T13:16:40.195Z,100704.53
2019-02-07T13:17:52.077Z,100702.20
2019-02-07T13:19:12.261Z,100694.21
2019-02-07T13:20:33.172Z,100690.52
2019-02-07T13:21:40.435Z,100692.57
2019-02-07T13:22:45.970Z,100689.80
2019-02-07T13:23:59.601Z,100682.24
2019-02-07T13:25:13.122Z,100676.89
2019-02-07T13:26:19.451Z,100672.86
2019-02-07T13:27:45.179Z,100671.39
2019-02-07T13:28:58.819Z,100667.41
2019-02-07T13:30:30.936Z,100665.15
2019-02-07T13:31:40.794Z,100666.41
2019-02-07T13:33:04.021Z,100662.05
2019-02-07T13:34:18.109Z,100651.98
2019-02-07T13:35:42.075Z,100650.77
2019-02-07T13:36:48.108Z,100655.27
2019-02-07T13:38:11.992Z,100658.73
2019-02-07T13:39:33.395Z,100655.65
2019-02-07T13:40:54.029Z,100653.12
2019-02-07T13:42:08.515Z,100651.80
2019-02-07T13:43:22.652Z,100651.80
2019-02-07T13:44:29.928Z,100655.73
2019-02-07T13:45:44.236Z,100654.00
2019-02-07T13:47:03.716Z,100644.81
2019-02-07T13:48:14.995Z,100653.95
2019-02-07T13:49:20.376Z,100644.67
2019-02-07T13:50:27.696Z,100635.00
2019-02-07T13:51:33.457Z,100643.73
2019-02-07T13:52:47.068Z,100635.80
2019-02-07T13:53:59.546Z,100636.59
2019-02-07T13:55:24.775Z,100624.78
2019-02-07T13:56:33.117Z,100621.69
2019-02-07T13:57:40.777Z,100624.21